createdAt,value
2022-11-09T00:00:05.450Z,6.18
2022-11-09T00:02:32.339Z,3.65
2022-11-09T00:04:59.029Z,3.72
2022-11-09T00:07:26.023Z,3.75
2022-11-09T00:09:52.721Z,4.03
2022-11-09T00:12:19.528Z,3.30
2022-11-09T00:14:46.467Z,3.72
2022-11-09T00:17:13.113Z,5.78
2022-11-09T00:19:39.686Z,5.38
2022-11-09T00:22:06.274Z,3.58
2022-11-09T00:24:32.848Z,4.57
2022-11-09T00:26:59.532Z,4.18
2022-11-09T00:29:26.213Z,4.80
2022-11-09T00:31:52.758Z,3.08
2022-11-09T00:34:19.396Z,2.88
2022-11-09T00:36:46.000Z,5.63
2022-11-09T00:39:12.615Z,3.55
2022-11-09T00:41:39.219Z,4.72
2022-11-09T00:44:06.000Z,8.02
2022-11-09T00:46:32.897Z,5.90
2022-11-09T00:48:59.832Z,3.60
2022-11-09T00:51:26.421Z,2.08
2022-11-09T00:53:54.676Z,3.42
2022-11-09T00:56:21.789Z,6.68
2022-11-09T00:58:48.492Z,3.03
2022-11-09T01:01:16.294Z,4.43
2022-11-09T01:03:43.841Z,5.55
2022-11-09T01:06:14.825Z,2.80
2022-11-09T01:08:41.447Z,2.97
2022-11-09T01:11:08.968Z,2.03
2022-11-09T01:13:36.147Z,3.35
2022-11-09T01:16:06.107Z,2.25
2022-11-09T01:18:32.879Z,2.35
2022-11-09T01:20:59.473Z,4.70
2022-11-09T01:23:26.445Z,2.80
2022-11-09T01:26:01.085Z,2.80
2022-11-09T01:28:27.730Z,4.78
2022-11-09T01:30:54.415Z,2.97
2022-11-09T01:33:21.462Z,3.67
2022-11-09T01:35:48.209Z,3.00
2022-11-09T01:38:14.802Z,4.35
2022-11-09T01:40:41.567Z,2.22
2022-11-09T01:43:23.635Z,2.30
2022-11-09T01:46:00.512Z,2.38
2022-11-09T01:48:53.623Z,2.97
2022-11-09T01:53:55.934Z,3.75
2022-11-09T01:56:22.526Z,4.22
2022-11-09T01:58:53.059Z,2.45
2022-11-09T02:01:19.786Z,3.60
2022-11-09T02:03:52.202Z,4.13
2022-11-09T02:06:18.930Z,2.10
2022-11-09T02:08:45.566Z,1.95
2022-11-09T02:11:14.050Z,2.50
2022-11-09T02:13:43.200Z,2.55
2022-11-09T02:16:11.318Z,3.95
2022-11-09T02:18:43.435Z,5.47
2022-11-09T02:21:10.019Z,2.53
2022-11-09T02:23:36.587Z,4.60
2022-11-09T02:26:07.224Z,2.95
2022-11-09T02:28:34.170Z,3.17
2022-11-09T02:31:00.733Z,2.63
2022-11-09T02:33:27.324Z,2.97
2022-11-09T02:35:53.953Z,2.88
2022-11-09T02:38:20.615Z,2.60
2022-11-09T02:40:48.439Z,2.75
2022-11-09T02:43:15.102Z,1.98
2022-11-09T02:45:41.673Z,5.03
2022-11-09T02:48:08.249Z,6.35
2022-11-09T02:50:36.936Z,3.83
2022-11-09T02:53:03.835Z,6.15
2022-11-09T02:55:30.606Z,8.90
2022-11-09T02:57:57.191Z,7.63
2022-11-09T03:00:23.764Z,18.63
2022-11-09T03:02:50.422Z,10.52
2022-11-09T03:05:17.102Z,10.48
2022-11-09T03:07:43.678Z,7.65
2022-11-09T03:10:10.320Z,6.57
2022-11-09T03:12:36.933Z,6.43
2022-11-09T03:15:06.509Z,14.43
2022-11-09T03:17:33.270Z,10.32
2022-11-09T03:19:59.866Z,7.38
2022-11-09T03:22:26.613Z,8.23
2022-11-09T03:24:53.175Z,7.80
2022-11-09T03:27:19.789Z,9.35
2022-11-09T03:29:46.388Z,3.35
2022-11-09T03:32:13.005Z,9.38
2022-11-09T03:34:39.618Z,7.28
2022-11-09T03:37:06.267Z,6.90
2022-11-09T03:39:33.475Z,3.83
2022-11-09T03:42:00.138Z,3.25
2022-11-09T03:44:26.867Z,3.28
2022-11-09T03:46:53.474Z,2.95
2022-11-09T03:49:20.117Z,2.25
2022-11-09T03:51:46.755Z,2.90
2022-11-09T03:54:13.290Z,2.53
2022-11-09T03:56:39.979Z,2.22
2022-11-09T03:59:06.635Z,3.03
2022-11-09T04:01:33.307Z,4.82
2022-11-09T04:03:59.947Z,7.93
2022-11-09T04:06:26.647Z,7.78
2022-11-09T04:08:53.307Z,8.05
2022-11-09T04:11:19.904Z,11.13
2022-11-09T04:13:47.378Z,8.20
2022-11-09T04:16:14.058Z,3.53
2022-11-09T04:18:40.627Z,4.60
2022-11-09T04:21:07.403Z,4.90
2022-11-09T04:23:34.046Z,2.30
2022-11-09T04:26:00.664Z,2.30
2022-11-09T04:28:27.263Z,2.22
2022-11-09T04:30:53.845Z,4.53
2022-11-09T04:33:20.925Z,3.00
2022-11-09T04:35:47.820Z,1.50
2022-11-09T04:38:14.626Z,2.67
2022-11-09T04:40:41.293Z,1.88
2022-11-09T04:43:10.346Z,1.88
2022-11-09T04:45:36.971Z,1.88
2022-11-09T04:48:05.093Z,2.15
2022-11-09T04:50:31.844Z,2.97
2022-11-09T04:53:15.292Z,1.92
2022-11-09T04:55:42.080Z,3.63
2022-11-09T04:58:08.770Z,2.33
2022-11-09T05:00:35.775Z,1.83
2022-11-09T05:03:02.967Z,2.08
2022-11-09T05:05:29.698Z,1.48
2022-11-09T05:07:56.378Z,2.55
2022-11-09T05:10:23.003Z,1.55
2022-11-09T05:12:49.667Z,2.65
2022-11-09T05:15:16.308Z,3.78
2022-11-09T05:17:42.888Z,5.00
2022-11-09T05:20:10.115Z,4.25
2022-11-09T05:23:00.057Z,5.25
2022-11-09T05:25:26.692Z,6.32
2022-11-09T05:27:53.300Z,9.02
2022-11-09T05:30:20.120Z,9.90
2022-11-09T05:32:46.755Z,5.53
2022-11-09T05:35:13.445Z,5.97
2022-11-09T05:37:40.028Z,4.55
2022-11-09T05:40:08.379Z,3.33
2022-11-09T05:42:37.588Z,1.30
2022-11-09T05:45:35.537Z,3.65
2022-11-09T05:47:51.005Z,2.30
2022-11-09T05:50:17.719Z,2.38
2022-11-09T05:52:44.407Z,2.08
2022-11-09T05:55:11.079Z,4.43
2022-11-09T05:57:37.657Z,2.22
2022-11-09T06:00:09.857Z,3.35
2022-11-09T06:02:37.634Z,2.72
2022-11-09T06:05:04.434Z,6.15
2022-11-09T06:07:31.124Z,6.20
2022-11-09T06:09:57.724Z,2.47
2022-11-09T06:12:24.314Z,4.97
2022-11-09T06:14:50.935Z,4.38
2022-11-09T06:17:17.605Z,6.57
2022-11-09T06:19:44.315Z,3.85
2022-11-09T06:22:12.225Z,4.45
2022-11-09T06:24:39.078Z,3.70
2022-11-09T06:27:06.035Z,4.55
2022-11-09T06:29:32.890Z,6.07
2022-11-09T06:31:59.491Z,9.02
2022-11-09T06:34:26.064Z,3.83
2022-11-09T06:36:52.904Z,8.90
2022-11-09T06:39:19.540Z,9.43
2022-11-09T06:41:47.594Z,5.50
2022-11-09T06:44:14.536Z,5.30
2022-11-09T06:46:41.161Z,3.33
2022-11-09T06:49:08.180Z,3.13
2022-11-09T06:51:34.813Z,3.15
2022-11-09T06:54:01.402Z,2.85
2022-11-09T06:56:28.010Z,5.28
2022-11-09T06:58:54.652Z,6.38
2022-11-09T07:01:23.322Z,5.93
2022-11-09T07:03:50.034Z,2.75
2022-11-09T07:06:16.658Z,6.38
2022-11-09T07:08:43.404Z,3.30
2022-11-09T07:11:12.796Z,3.45
2022-11-09T07:13:39.667Z,4.95
2022-11-09T07:16:06.889Z,2.67
2022-11-09T07:18:33.586Z,2.13
2022-11-09T07:21:00.303Z,14.15
2022-11-09T07:23:27.909Z,8.65
2022-11-09T07:25:54.478Z,7.53
2022-11-09T07:28:21.114Z,18.40
2022-11-09T07:30:51.760Z,13.35
2022-11-09T07:33:18.625Z,10.48
2022-11-09T07:35:45.817Z,12.30
2022-11-09T07:38:13.261Z,6.05
2022-11-09T07:40:40.685Z,11.68
2022-11-09T07:43:08.032Z,11.88
2022-11-09T07:45:35.136Z,11.98
2022-11-09T07:48:03.793Z,13.80
2022-11-09T07:50:30.799Z,13.98
2022-11-09T07:52:57.967Z,7.75
2022-11-09T07:55:24.998Z,12.75
2022-11-09T07:57:57.716Z,12.30
2022-11-09T08:02:51.257Z,8.95
2022-11-09T08:05:17.901Z,8.77
2022-11-09T08:07:44.492Z,9.25
2022-11-09T08:10:11.070Z,9.10
2022-11-09T08:12:37.733Z,9.15
2022-11-09T08:15:05.287Z,6.07
2022-11-09T08:17:32.286Z,6.47
2022-11-09T08:19:58.935Z,8.63
2022-11-09T08:22:25.619Z,8.32
2022-11-09T08:24:52.296Z,10.75
2022-11-09T08:27:19.097Z,9.18
2022-11-09T08:29:46.220Z,5.07
2022-11-09T08:32:13.239Z,5.95
2022-11-09T08:34:39.950Z,6.18
2022-11-09T08:37:06.584Z,9.80
2022-11-09T08:39:36.572Z,7.65
2022-11-09T08:42:03.718Z,15.95
2022-11-09T08:44:30.413Z,12.07
2022-11-09T08:46:57.092Z,8.05
2022-11-09T08:49:24.288Z,10.95
2022-11-09T08:51:51.545Z,7.97
2022-11-09T08:54:18.177Z,12.88
2022-11-09T08:56:46.392Z,8.65
2022-11-09T08:59:13.818Z,8.85
2022-11-09T09:01:40.494Z,10.82
2022-11-09T09:04:08.171Z,16.95
2022-11-09T09:06:34.827Z,16.17
2022-11-09T09:09:01.536Z,6.40
2022-11-09T09:11:28.129Z,13.23
2022-11-09T09:13:54.729Z,7.13
2022-11-09T09:16:21.353Z,6.55
2022-11-09T09:18:48.625Z,15.40
2022-11-09T09:21:15.364Z,4.30
2022-11-09T09:23:42.062Z,9.30
2022-11-09T09:26:08.676Z,16.83
2022-11-09T09:28:35.378Z,18.83
2022-11-09T09:31:02.191Z,26.40
2022-11-09T09:33:29.137Z,25.65
2022-11-09T09:35:57.326Z,12.20
2022-11-09T09:38:33.432Z,11.38
2022-11-09T09:41:02.691Z,4.93
2022-11-09T09:43:42.779Z,3.85
2022-11-09T09:46:46.506Z,8.20
2022-11-09T09:49:19.539Z,4.88
2022-11-09T09:52:26.129Z,1.70
2022-11-09T09:54:58.219Z,2.42
2022-11-09T09:57:24.856Z,5.45
2022-11-09T09:59:53.314Z,6.53
2022-11-09T10:02:35.621Z,5.15
2022-11-09T10:05:07.669Z,4.03
2022-11-09T10:07:41.958Z,3.58
2022-11-09T10:10:32.757Z,3.90
2022-11-09T10:13:32.219Z,1.45
2022-11-09T10:19:34.669Z,4.82
2022-11-09T10:22:22.353Z,2.03
2022-11-09T10:25:18.556Z,1.42
2022-11-09T10:28:01.841Z,4.05
2022-11-09T10:30:29.093Z,4.75
2022-11-09T10:32:59.632Z,2.53
2022-11-09T10:35:30.660Z,2.33
2022-11-09T10:37:57.329Z,1.90
2022-11-09T10:40:31.283Z,2.90
2022-11-09T10:42:59.352Z,3.08
2022-11-09T10:45:33.216Z,2.97
2022-11-09T10:48:00.177Z,1.95
2022-11-09T10:50:47.561Z,4.00
2022-11-09T10:53:30.673Z,2.30
2022-11-09T10:56:21.369Z,5.20
2022-11-09T10:58:50.183Z,5.75
2022-11-09T11:01:20.317Z,1.75
2022-11-09T11:03:50.068Z,4.15
2022-11-09T11:09:15.080Z,5.80
2022-11-09T11:11:41.724Z,1.67
2022-11-09T11:14:32.008Z,2.85
2022-11-09T11:16:58.596Z,1.77
2022-11-09T11:22:19.414Z,3.15
2022-11-09T11:27:53.467Z,3.03
2022-11-09T11:30:28.062Z,2.08
2022-11-09T11:32:56.014Z,7.00
2022-11-09T11:35:34.256Z,1.50
2022-11-09T11:41:12.491Z,1.95
2022-11-09T11:49:47.900Z,8.65
2022-11-09T11:57:56.771Z,2.15
2022-11-09T12:00:23.555Z,3.28
2022-11-09T12:03:14.956Z,2.78
2022-11-09T12:08:38.236Z,2.53
2022-11-09T12:11:13.941Z,2.65
2022-11-09T12:14:17.834Z,2.70
2022-11-09T12:17:07.299Z,5.07
2022-11-09T12:19:45.440Z,6.43
2022-11-09T12:22:19.171Z,2.05
2022-11-09T12:24:58.099Z,11.75
2022-11-09T12:28:03.090Z,10.70
2022-11-09T12:30:40.155Z,2.03
2022-11-09T12:33:33.665Z,2.40
2022-11-09T12:36:09.919Z,5.18
2022-11-09T12:38:44.978Z,5.03
2022-11-09T12:41:15.724Z,2.20
2022-11-09T12:44:17.057Z,4.65
2022-11-09T12:46:48.784Z,5.38
2022-11-09T12:49:30.651Z,2.22
2022-11-09T12:51:59.089Z,1.55
2022-11-09T12:54:25.925Z,11.10
2022-11-09T12:56:59.866Z,3.40
2022-11-09T13:02:04.614Z,1.98
2022-11-09T13:04:34.430Z,2.13
2022-11-09T13:09:45.071Z,5.15
2022-11-09T13:12:37.632Z,2.25
2022-11-09T13:15:25.254Z,2.77
2022-11-09T13:17:55.899Z,4.70
2022-11-09T13:23:59.453Z,4.25
2022-11-09T13:34:52.743Z,4.75
2022-11-09T13:37:36.970Z,3.50
2022-11-09T13:40:33.356Z,2.10
2022-11-09T13:43:17.759Z,3.55
2022-11-09T13:45:47.452Z,2.72
2022-11-09T13:48:49.240Z,4.90
2022-11-09T13:51:25.835Z,2.22
2022-11-09T13:54:00.532Z,3.53
2022-11-09T13:59:17.023Z,3.10
2022-11-09T14:01:57.548Z,2.80
2022-11-09T14:04:40.169Z,2.08
2022-11-09T14:07:27.701Z,4.18
2022-11-09T14:10:02.107Z,2.97
2022-11-09T14:12:53.627Z,2.50
2022-11-09T14:16:00.086Z,5.07
2022-11-09T14:18:36.726Z,4.45
2022-11-09T14:21:19.801Z,2.95
2022-11-09T14:23:46.402Z,2.88
2022-11-09T14:26:18.094Z,4.43
2022-11-09T14:28:44.747Z,3.20
2022-11-09T14:31:28.028Z,3.47
2022-11-09T14:34:02.889Z,10.32
2022-11-09T14:36:30.234Z,2.42
2022-11-09T14:38:58.415Z,7.03
2022-11-09T14:41:26.169Z,3.25
2022-11-09T14:43:53.609Z,5.82
2022-11-09T14:46:22.850Z,12.32
2022-11-09T14:48:59.765Z,3.97
2022-11-09T14:51:31.867Z,7.72
2022-11-09T14:53:59.464Z,4.10
2022-11-09T14:56:26.116Z,11.75
2022-11-09T14:58:52.708Z,5.53
2022-11-09T15:06:51.014Z,9.88
2022-11-09T15:09:20.132Z,5.82
2022-11-09T15:11:46.908Z,14.40
2022-11-09T15:16:59.219Z,5.03
2022-11-09T15:19:33.535Z,7.80
2022-11-09T15:22:00.098Z,5.88
2022-11-09T15:24:28.099Z,5.10
2022-11-09T15:26:56.110Z,9.15
2022-11-09T15:29:39.403Z,9.15
2022-11-09T15:32:16.555Z,27.63
2022-11-09T15:34:52.945Z,19.23
2022-11-09T15:37:26.946Z,12.30
2022-11-09T15:39:53.600Z,13.52
2022-11-09T15:42:20.383Z,17.35
2022-11-09T15:44:50.617Z,3.15
2022-11-09T15:47:21.163Z,19.15
2022-11-09T15:49:47.777Z,34.42
2022-11-09T15:52:14.429Z,29.17
2022-11-09T15:54:45.559Z,30.38
2022-11-09T15:57:15.761Z,26.40
2022-11-09T15:59:42.375Z,16.50
2022-11-09T16:02:10.477Z,17.48
2022-11-09T16:04:37.110Z,15.02
2022-11-09T16:07:03.762Z,27.02
2022-11-09T16:09:30.408Z,17.63
2022-11-09T16:11:57.428Z,18.77
2022-11-09T16:14:24.427Z,17.77
2022-11-09T16:16:51.103Z,26.77
2022-11-09T16:19:17.714Z,18.83
2022-11-09T16:21:44.307Z,21.58
2022-11-09T16:24:19.924Z,21.52
2022-11-09T16:26:46.661Z,18.95
2022-11-09T16:29:13.309Z,10.65
2022-11-09T16:31:51.561Z,17.45
2022-11-09T16:34:19.054Z,21.17
2022-11-09T16:36:50.903Z,20.65
2022-11-09T16:39:19.201Z,17.77
2022-11-09T16:41:48.259Z,27.55
2022-11-09T16:44:16.248Z,24.25
2022-11-09T16:46:43.866Z,13.93
2022-11-09T16:49:10.472Z,13.18
2022-11-09T16:51:37.180Z,29.55
2022-11-09T16:54:04.074Z,27.30
2022-11-09T16:56:33.536Z,20.15
2022-11-09T16:59:00.722Z,25.13
2022-11-09T17:01:27.516Z,27.17
2022-11-09T17:03:54.209Z,12.63
2022-11-09T17:06:20.792Z,19.90
2022-11-09T17:08:47.463Z,25.80
2022-11-09T17:11:14.957Z,29.27
2022-11-09T17:13:41.676Z,20.25
2022-11-09T17:16:10.056Z,15.30
2022-11-09T17:18:37.875Z,22.77
2022-11-09T17:21:09.581Z,15.77
2022-11-09T17:23:36.370Z,20.17
2022-11-09T17:26:04.108Z,13.68
2022-11-09T17:28:31.281Z,12.85
2022-11-09T17:30:57.855Z,10.32
2022-11-09T17:33:24.805Z,9.52
2022-11-09T17:35:59.752Z,11.18
2022-11-09T17:38:26.523Z,6.05
2022-11-09T17:40:54.377Z,8.07
2022-11-09T17:43:21.157Z,8.02
2022-11-09T17:45:47.799Z,7.20
2022-11-09T17:48:14.455Z,8.77
2022-11-09T17:50:41.131Z,11.93
2022-11-09T17:53:07.726Z,8.32
2022-11-09T17:55:36.533Z,10.15
2022-11-09T17:58:03.311Z,6.68
2022-11-09T18:00:29.911Z,9.95
2022-11-09T18:02:56.620Z,6.55
2022-11-09T18:05:23.274Z,7.18
2022-11-09T18:07:49.882Z,11.98
2022-11-09T18:10:16.808Z,7.40
2022-11-09T18:12:43.702Z,8.57
2022-11-09T18:15:10.866Z,5.93
2022-11-09T18:17:37.475Z,3.80
2022-11-09T18:20:05.050Z,7.07
2022-11-09T18:22:31.676Z,5.60
2022-11-09T18:24:58.273Z,4.78
2022-11-09T18:27:29.075Z,5.57
2022-11-09T18:29:57.077Z,4.05
2022-11-09T18:32:23.914Z,4.32
2022-11-09T18:34:50.577Z,4.63
2022-11-09T18:37:17.157Z,8.10
2022-11-09T18:39:43.975Z,7.35
2022-11-09T18:42:10.623Z,6.35
2022-11-09T18:44:37.275Z,8.65
2022-11-09T18:47:05.508Z,6.53
2022-11-09T18:49:32.616Z,6.43
2022-11-09T18:51:59.653Z,8.43
2022-11-09T18:54:26.404Z,6.75
2022-11-09T18:56:53.316Z,5.20
2022-11-09T18:59:20.021Z,5.90
2022-11-09T19:01:46.755Z,5.28
2022-11-09T19:04:15.142Z,7.18
2022-11-09T19:06:41.863Z,7.10
2022-11-09T19:09:31.242Z,6.00
2022-11-09T19:11:58.690Z,4.88
2022-11-09T19:14:25.745Z,7.07
2022-11-09T19:16:52.410Z,5.68
2022-11-09T19:19:19.188Z,5.65
2022-11-09T19:21:48.106Z,10.10
2022-11-09T19:24:17.008Z,7.20
2022-11-09T19:26:43.709Z,6.53
2022-11-09T19:29:11.358Z,5.38
2022-11-09T19:31:38.441Z,7.40
2022-11-09T19:34:05.082Z,6.28
2022-11-09T19:36:33.539Z,5.35
2022-11-09T19:39:01.234Z,7.15
2022-11-09T19:41:29.194Z,7.18
2022-11-09T19:43:58.455Z,6.80
2022-11-09T19:46:27.140Z,9.00
2022-11-09T19:48:53.710Z,7.60
2022-11-09T19:51:20.429Z,7.43
2022-11-09T19:53:51.726Z,6.03
2022-11-09T19:56:18.472Z,8.05
2022-11-09T19:58:49.236Z,6.97
2022-11-09T20:01:15.935Z,8.25
2022-11-09T20:03:42.651Z,9.32
2022-11-09T20:06:09.317Z,7.15
2022-11-09T20:08:36.562Z,6.57
2022-11-09T20:11:07.538Z,8.52
2022-11-09T20:13:34.592Z,6.13
2022-11-09T20:16:03.069Z,7.45
2022-11-09T20:18:29.713Z,6.22
2022-11-09T20:20:56.375Z,5.63
2022-11-09T20:23:23.244Z,5.53
2022-11-09T20:25:50.016Z,6.13
2022-11-09T20:28:16.838Z,5.25
2022-11-09T20:30:43.454Z,6.63
2022-11-09T20:33:10.463Z,9.30
2022-11-09T20:35:37.157Z,6.50
2022-11-09T20:38:03.739Z,6.28
2022-11-09T20:40:30.319Z,5.38
2022-11-09T20:42:57.915Z,5.53
2022-11-09T20:45:24.582Z,10.60
2022-11-09T20:48:07.567Z,7.30
2022-11-09T20:50:37.897Z,6.28
2022-11-09T20:53:04.516Z,7.20
2022-11-09T20:55:31.315Z,6.45
2022-11-09T20:57:57.880Z,7.72
2022-11-09T21:00:24.839Z,7.55
2022-11-09T21:02:51.601Z,6.90
2022-11-09T21:05:18.256Z,6.55
2022-11-09T21:07:45.380Z,6.90
2022-11-09T21:10:11.996Z,6.20
2022-11-09T21:12:38.722Z,5.95
2022-11-09T21:15:06.000Z,9.18
2022-11-09T21:17:33.185Z,5.85
2022-11-09T21:19:59.792Z,6.38
2022-11-09T21:22:46.426Z,5.93
2022-11-09T21:25:33.047Z,7.38
2022-11-09T21:28:19.928Z,5.03
2022-11-09T21:30:46.782Z,4.22
2022-11-09T21:33:13.520Z,5.10
2022-11-09T21:35:40.197Z,6.57
2022-11-09T21:38:06.772Z,7.93
2022-11-09T21:40:33.366Z,5.65
2022-11-09T21:43:00.025Z,4.82
2022-11-09T21:45:27.561Z,5.35
2022-11-09T21:47:54.606Z,6.07
2022-11-09T21:50:21.358Z,5.32
2022-11-09T21:52:48.085Z,5.35
2022-11-09T21:55:14.746Z,4.40
2022-11-09T21:57:41.423Z,5.47
2022-11-09T22:00:09.149Z,5.43
2022-11-09T22:02:35.768Z,4.65
2022-11-09T22:05:02.436Z,4.18
2022-11-09T22:07:29.002Z,4.00
2022-11-09T22:10:09.937Z,3.55
2022-11-09T22:12:57.899Z,3.63
2022-11-09T22:15:44.402Z,4.30
2022-11-09T22:18:30.935Z,3.83
2022-11-09T22:20:57.526Z,3.08
2022-11-09T22:23:24.321Z,2.97
2022-11-09T22:25:50.926Z,3.30
2022-11-09T22:28:17.543Z,4.63
2022-11-09T22:30:44.175Z,4.25
2022-11-09T22:33:10.838Z,3.30
2022-11-09T22:35:37.430Z,4.75
2022-11-09T22:38:04.055Z,5.00
2022-11-09T22:40:30.761Z,4.22
2022-11-09T22:42:57.391Z,4.82
2022-11-09T22:45:24.007Z,5.18
2022-11-09T22:47:50.667Z,7.25
2022-11-09T22:50:17.317Z,4.57
2022-11-09T22:52:43.981Z,5.88
2022-11-09T22:55:10.632Z,5.82
2022-11-09T22:57:37.979Z,4.38
2022-11-09T23:00:04.963Z,4.47
2022-11-09T23:02:31.635Z,4.80
2022-11-09T23:04:58.355Z,5.43
2022-11-09T23:07:24.960Z,5.93
2022-11-09T23:09:51.786Z,8.15
2022-11-09T23:12:18.496Z,5.68
2022-11-09T23:15:05.068Z,4.97
2022-11-09T23:17:54.615Z,6.22
2022-11-09T23:20:21.514Z,4.90
2022-11-09T23:22:49.618Z,6.78
2022-11-09T23:25:36.169Z,6.57
2022-11-09T23:28:02.970Z,7.25
2022-11-09T23:30:29.586Z,4.75
2022-11-09T23:32:56.225Z,5.47
2022-11-09T23:35:22.793Z,7.95
2022-11-09T23:37:57.896Z,6.03
2022-11-09T23:40:24.490Z,8.82
2022-11-09T23:42:51.070Z,5.80
2022-11-09T23:45:17.777Z,7.10
2022-11-09T23:47:44.381Z,7.13
2022-11-09T23:50:10.961Z,5.55
2022-11-09T23:52:37.529Z,7.80
2022-11-09T23:55:04.363Z,5.50
2022-11-09T23:57:30.972Z,4.75
2022-11-09T23:59:57.565Z,5.30
